sensor_id;sensor_type;location;lat;lon;timestamp;temperature;humidity
47162;DHT22;32921;53.256;8.198;2024-01-15T00:01:17;1.70;99.90
47162;DHT22;32921;53.256;8.198;2024-01-15T00:03:42;1.70;99.90
47162;DHT22;32921;53.256;8.198;2024-01-15T00:06:08;1.60;99.90
47162;DHT22;32921;53.256;8.198;2024-01-15T00:08:34;1.50;99.90
47162;DHT22;32921;53.256;8.198;2024-01-15T00:10:59;1.50;99.90
47162;DHT22;32921;53.256;8.198;2024-01-15T00:13:25;1.50;99.90
47162;DHT22;32921;53.256;8.198;2024-01-15T00:15:51;1.50;99.90
47162;DHT22;32921;53.256;8.198;2024-01-15T00:18:16;1.60;99.90
47162;DHT22;32921;53.256;8.198;2024-01-15T00:20:42;1.70;99.90
47162;DHT22;32921;53.256;8.198;2024-01-15T00:23:07;1.70;99.90
47162;DHT22;32921;53.256;8.198;2024-01-15T00:25:33;1.60;99.90
47162;DHT22;32921;53.256;8.198;2024-01-15T00:27:59;1.70;99.90
47162;DHT22;32921;53.256;8.198;2024-01-15T00:30:24;1.70;99.90
47162;DHT22;32921;53.256;8.198;2024-01-15T00:32:50;1.70;99.90
47162;DHT22;32921;53.256;8.198;2024-01-15T00:35:15;1.70;99.90
47162;DHT22;32921;53.256;8.198;2024-01-15T00:37:41;1.70;99.90
47162;DHT22;32921;53.256;8.198;2024-01-15T00:40:07;1.70;99.90
47162;DHT22;32921;53.256;8.198;2024-01-15T00:42:33;1.70;99.90
47162;DHT22;32921;53.256;8.198;2024-01-15T00:44:59;1.70;99.90
47162;DHT22;32921;53.256;8.198;2024-01-15T00:47:25;1.60;99.90
47162;DHT22;32921;53.256;8.198;2024-01-15T00:49:51;1.60;99.90
47162;DHT22;32921;53.256;8.198;2024-01-15T00:52:16;1.50;99.90
47162;DHT22;32921;53.256;8.198;2024-01-15T00:54:42;1.50;99.90
47162;DHT22;32921;53.256;8.198;2024-01-15T00:57:08;1.50;99.90
47162;DHT22;32921;53.256;8.198;2024-01-15T00:59:33;1.60;99.90
47162;DHT22;32921;53.256;8.198;2024-01-15T01:01:59;1.60;99.90
47162;DHT22;32921;53.256;8.198;2024-01-15T01:04:25;1.70;99.90
47162;DHT22;32921;53.256;8.198;2024-01-15T01:06:50;1.60;99.90
47162;DHT22;32921;53.256;8.198;2024-01-15T01:09:16;1.50;99.90
47162;DHT22;32921;53.256;8.198;2024-01-15T01:11:41;1.40;99.90
47162;DHT22;32921;53.256;8.198;2024-01-15T01:14:07;1.40;99.90
47162;DHT22;32921;53.256;8.198;2024-01-15T01:16:32;1.50;99.90
47162;DHT22;32921;53.256;8.198;2024-01-15T01:19:05;1.50;99.90
47162;DHT22;32921;53.256;8.198;2024-01-15T01:21:30;1.60;99.90
47162;DHT22;32921;53.256;8.198;2024-01-15T01:23:56;1.50;99.90
47162;DHT22;32921;53.256;8.198;2024-01-15T01:26:21;1.40;99.90
47162;DHT22;32921;53.256;8.198;2024-01-15T01:28:47;1.40;99.90
47162;DHT22;32921;53.256;8.198;2024-01-15T01:31:13;1.40;99.90
47162;DHT22;32921;53.256;8.198;2024-01-15T01:33:41;1.50;99.90
47162;DHT22;32921;53.256;8.198;2024-01-15T01:36:10;1.50;99.90
47162;DHT22;32921;53.256;8.198;2024-01-15T01:38:36;1.50;99.90
47162;DHT22;32921;53.256;8.198;2024-01-15T01:41:02;1.60;99.90
47162;DHT22;32921;53.256;8.198;2024-01-15T01:43:28;1.60;99.90
47162;DHT22;32921;53.256;8.198;2024-01-15T01:45:56;1.60;99.90
47162;DHT22;32921;53.256;8.198;2024-01-15T01:48:22;1.70;99.90
47162;DHT22;32921;53.256;8.198;2024-01-15T01:50:50;1.70;99.90
47162;DHT22;32921;53.256;8.198;2024-01-15T01:53:16;1.80;99.90
47162;DHT22;32921;53.256;8.198;2024-01-15T01:55:42;1.80;99.90
47162;DHT22;32921;53.256;8.198;2024-01-15T01:58:07;1.90;99.90
47162;DHT22;32921;53.256;8.198;2024-01-15T02:00:34;1.80;99.90
47162;DHT22;32921;53.256;8.198;2024-01-15T02:03:00;1.80;99.90
47162;DHT22;32921;53.256;8.198;2024-01-15T02:05:29;1.80;99.90
47162;DHT22;32921;53.256;8.198;2024-01-15T02:07:55;1.80;99.90
47162;DHT22;32921;53.256;8.198;2024-01-15T02:10:21;1.80;99.90
47162;DHT22;32921;53.256;8.198;2024-01-15T02:12:47;1.80;99.90
47162;DHT22;32921;53.256;8.198;2024-01-15T02:15:14;1.80;99.90
47162;DHT22;32921;53.256;8.198;2024-01-15T02:18:02;1.90;99.90
47162;DHT22;32921;53.256;8.198;2024-01-15T02:20:29;1.80;99.90
47162;DHT22;32921;53.256;8.198;2024-01-15T02:23:14;1.90;99.90
47162;DHT22;32921;53.256;8.198;2024-01-15T02:25:40;1.90;99.90
47162;DHT22;32921;53.256;8.198;2024-01-15T02:28:08;2.00;99.90
47162;DHT22;32921;53.256;8.198;2024-01-15T02:30:37;1.90;99.90
47162;DHT22;32921;53.256;8.198;2024-01-15T02:33:04;1.90;99.90
47162;DHT22;32921;53.256;8.198;2024-01-15T02:35:30;1.90;99.90
47162;DHT22;32921;53.256;8.198;2024-01-15T02:37:55;1.90;99.90
47162;DHT22;32921;53.256;8.198;2024-01-15T02:40:21;1.90;99.90
47162;DHT22;32921;53.256;8.198;2024-01-15T02:42:46;1.80;99.90
47162;DHT22;32921;53.256;8.198;2024-01-15T02:45:12;1.80;99.90
47162;DHT22;32921;53.256;8.198;2024-01-15T02:47:38;1.80;99.90
47162;DHT22;32921;53.256;8.198;2024-01-15T02:50:04;1.80;99.90
47162;DHT22;32921;53.256;8.198;2024-01-15T02:52:29;1.90;99.90
47162;DHT22;32921;53.256;8.198;2024-01-15T02:54:55;1.80;99.90
47162;DHT22;32921;53.256;8.198;2024-01-15T02:57:20;1.80;99.90
47162;DHT22;32921;53.256;8.198;2024-01-15T02:59:46;1.80;99.90
47162;DHT22;32921;53.256;8.198;2024-01-15T03:02:12;1.80;99.90
47162;DHT22;32921;53.256;8.198;2024-01-15T03:04:37;1.80;99.90
47162;DHT22;32921;53.256;8.198;2024-01-15T03:07:03;1.80;99.90
47162;DHT22;32921;53.256;8.198;2024-01-15T03:09:28;1.80;99.90
47162;DHT22;32921;53.256;8.198;2024-01-15T03:11:54;1.80;99.90
47162;DHT22;32921;53.256;8.198;2024-01-15T03:14:19;1.80;99.90
47162;DHT22;32921;53.256;8.198;2024-01-15T03:16:45;1.80;99.90
47162;DHT22;32921;53.256;8.198;2024-01-15T03:19:11;1.80;99.90
47162;DHT22;32921;53.256;8.198;2024-01-15T03:21:37;1.70;99.90
47162;DHT22;32921;53.256;8.198;2024-01-15T03:24:02;1.70;99.90
47162;DHT22;32921;53.256;8.198;2024-01-15T03:26:28;1.70;99.90
47162;DHT22;32921;53.256;8.198;2024-01-15T03:28:53;1.70;99.90
47162;DHT22;32921;53.256;8.198;2024-01-15T03:31:19;1.70;99.90
47162;DHT22;32921;53.256;8.198;2024-01-15T03:33:45;1.70;99.90
47162;DHT22;32921;53.256;8.198;2024-01-15T03:36:10;1.60;99.90
47162;DHT22;32921;53.256;8.198;2024-01-15T03:38:40;1.60;99.90
47162;DHT22;32921;53.256;8.198;2024-01-15T03:41:06;1.70;99.90
47162;DHT22;32921;53.256;8.198;2024-01-15T03:43:31;1.70;99.90
47162;DHT22;32921;53.256;8.198;2024-01-15T03:45:57;1.70;99.90
47162;DHT22;32921;53.256;8.198;2024-01-15T03:48:22;1.80;99.90
47162;DHT22;32921;53.256;8.198;2024-01-15T03:50:48;1.90;99.90
47162;DHT22;32921;53.256;8.198;2024-01-15T03:53:14;2.00;99.90
47162;DHT22;32921;53.256;8.198;2024-01-15T03:55:39;2.00;99.90
47162;DHT22;32921;53.256;8.198;2024-01-15T03:58:05;2.10;99.90
47162;DHT22;32921;53.256;8.198;2024-01-15T04:00:30;2.00;99.90
47162;DHT22;32921;53.256;8.198;2024-01-15T04:02:56;2.00;99.90
47162;DHT22;32921;53.256;8.198;2024-01-15T04:05:21;2.00;99.90
47162;DHT22;32921;53.256;8.198;2024-01-15T04:07:47;2.10;99.90
47162;DHT22;32921;53.256;8.198;2024-01-15T04:10:13;2.10;99.90
47162;DHT22;32921;53.256;8.198;2024-01-15T04:12:38;2.10;99.90
47162;DHT22;32921;53.256;8.198;2024-01-15T04:15:04;2.10;99.90
47162;DHT22;32921;53.256;8.198;2024-01-15T04:17:30;2.00;99.90
47162;DHT22;32921;53.256;8.198;2024-01-15T04:19:55;2.00;99.90
47162;DHT22;32921;53.256;8.198;2024-01-15T04:22:21;2.10;99.90
47162;DHT22;32921;53.256;8.198;2024-01-15T04:24:47;2.20;99.90
47162;DHT22;32921;53.256;8.198;2024-01-15T04:27:12;2.20;99.90
47162;DHT22;32921;53.256;8.198;2024-01-15T04:29:38;2.10;99.90
47162;DHT22;32921;53.256;8.198;2024-01-15T04:32:05;2.10;99.90
47162;DHT22;32921;53.256;8.198;2024-01-15T04:34:30;2.00;99.90
47162;DHT22;32921;53.256;8.198;2024-01-15T04:36:56;2.00;99.90
47162;DHT22;32921;53.256;8.198;2024-01-15T04:39:21;2.00;99.90
47162;DHT22;32921;53.256;8.198;2024-01-15T04:41:47;1.90;99.90
47162;DHT22;32921;53.256;8.198;2024-01-15T04:44:13;1.90;99.90
47162;DHT22;32921;53.256;8.198;2024-01-15T04:46:39;1.80;99.90
47162;DHT22;32921;53.256;8.198;2024-01-15T04:49:04;1.80;99.90
47162;DHT22;32921;53.256;8.198;2024-01-15T04:51:30;1.90;99.90
47162;DHT22;32921;53.256;8.198;2024-01-15T04:53:56;1.80;99.90
47162;DHT22;32921;53.256;8.198;2024-01-15T04:56:21;1.80;99.90
47162;DHT22;32921;53.256;8.198;2024-01-15T04:58:47;1.80;99.90
47162;DHT22;32921;53.256;8.198;2024-01-15T05:01:12;1.80;99.90
47162;DHT22;32921;53.256;8.198;2024-01-15T05:03:38;1.70;99.90
47162;DHT22;32921;53.256;8.198;2024-01-15T05:06:04;1.70;99.90
47162;DHT22;32921;53.256;8.198;2024-01-15T05:08:30;1.80;99.90
47162;DHT22;32921;53.256;8.198;2024-01-15T05:10:55;1.90;99.90
47162;DHT22;32921;53.256;8.198;2024-01-15T05:13:21;1.80;99.90
47162;DHT22;32921;53.256;8.198;2024-01-15T05:15:47;1.80;99.90
47162;DHT22;32921;53.256;8.198;2024-01-15T05:18:13;1.70;99.90
47162;DHT22;32921;53.256;8.198;2024-01-15T05:20:38;1.70;99.90
47162;DHT22;32921;53.256;8.198;2024-01-15T05:23:04;1.70;99.90
47162;DHT22;32921;53.256;8.198;2024-01-15T05:25:29;1.70;99.90
47162;DHT22;32921;53.256;8.198;2024-01-15T05:27:55;1.70;99.90
47162;DHT22;32921;53.256;8.198;2024-01-15T05:30:21;1.70;99.90
47162;DHT22;32921;53.256;8.198;2024-01-15T05:32:46;1.70;99.90
47162;DHT22;32921;53.256;8.198;2024-01-15T05:35:12;1.80;99.90
47162;DHT22;32921;53.256;8.198;2024-01-15T05:37:43;1.70;99.90
47162;DHT22;32921;53.256;8.198;2024-01-15T05:40:09;1.80;99.90
47162;DHT22;32921;53.256;8.198;2024-01-15T05:42:35;1.90;99.90
47162;DHT22;32921;53.256;8.198;2024-01-15T05:45:01;1.90;99.90
47162;DHT22;32921;53.256;8.198;2024-01-15T05:47:29;1.90;99.90
47162;DHT22;32921;53.256;8.198;2024-01-15T05:49:55;2.00;99.90
47162;DHT22;32921;53.256;8.198;2024-01-15T05:52:21;2.00;99.90
47162;DHT22;32921;53.256;8.198;2024-01-15T05:54:47;1.90;99.90
47162;DHT22;32921;53.256;8.198;2024-01-15T05:57:13;1.90;99.90
47162;DHT22;32921;53.256;8.198;2024-01-15T05:59:38;1.90;99.90
47162;DHT22;32921;53.256;8.198;2024-01-15T06:02:04;1.90;99.90
47162;DHT22;32921;53.256;8.198;2024-01-15T06:04:30;2.00;99.90
47162;DHT22;32921;53.256;8.198;2024-01-15T06:06:55;2.00;99.90
47162;DHT22;32921;53.256;8.198;2024-01-15T06:09:21;2.00;99.90
47162;DHT22;32921;53.256;8.198;2024-01-15T06:11:46;2.00;99.90
47162;DHT22;32921;53.256;8.198;2024-01-15T06:14:12;2.00;99.90
47162;DHT22;32921;53.256;8.198;2024-01-15T06:16:38;2.00;99.90
47162;DHT22;32921;53.256;8.198;2024-01-15T06:19:03;2.10;99.90
47162;DHT22;32921;53.256;8.198;2024-01-15T06:21:29;2.10;99.90
47162;DHT22;32921;53.256;8.198;2024-01-15T06:23:54;2.00;99.90
47162;DHT22;32921;53.256;8.198;2024-01-15T06:26:22;1.90;99.90
47162;DHT22;32921;53.256;8.198;2024-01-15T06:28:48;1.80;99.90
47162;DHT22;32921;53.256;8.198;2024-01-15T06:31:13;1.70;99.90
47162;DHT22;32921;53.256;8.198;2024-01-15T06:33:39;1.70;99.90
47162;DHT22;32921;53.256;8.198;2024-01-15T06:36:05;1.80;99.90
47162;DHT22;32921;53.256;8.198;2024-01-15T06:38:31;1.80;99.90
47162;DHT22;32921;53.256;8.198;2024-01-15T06:40:56;1.90;99.90
47162;DHT22;32921;53.256;8.198;2024-01-15T06:43:22;1.80;99.90
47162;DHT22;32921;53.256;8.198;2024-01-15T06:45:48;1.80;99.90
47162;DHT22;32921;53.256;8.198;2024-01-15T06:48:13;1.80;99.90
47162;DHT22;32921;53.256;8.198;2024-01-15T06:50:42;1.80;99.90
47162;DHT22;32921;53.256;8.198;2024-01-15T06:53:08;1.80;99.90
47162;DHT22;32921;53.256;8.198;2024-01-15T06:55:34;1.80;99.90
47162;DHT22;32921;53.256;8.198;2024-01-15T06:58:00;1.80;99.90
47162;DHT22;32921;53.256;8.198;2024-01-15T07:00:26;1.80;99.90
47162;DHT22;32921;53.256;8.198;2024-01-15T07:02:53;1.80;99.90
47162;DHT22;32921;53.256;8.198;2024-01-15T07:05:19;1.70;99.90
47162;DHT22;32921;53.256;8.198;2024-01-15T07:07:45;1.70;99.90
47162;DHT22;32921;53.256;8.198;2024-01-15T07:10:11;1.70;99.90
47162;DHT22;32921;53.256;8.198;2024-01-15T07:12:36;1.70;99.90
47162;DHT22;32921;53.256;8.198;2024-01-15T07:15:02;1.70;99.90
47162;DHT22;32921;53.256;8.198;2024-01-15T07:17:29;1.70;99.90
47162;DHT22;32921;53.256;8.198;2024-01-15T07:19:56;1.80;99.90
47162;DHT22;32921;53.256;8.198;2024-01-15T07:22:21;1.80;99.90
47162;DHT22;32921;53.256;8.198;2024-01-15T07:24:47;1.80;99.90
47162;DHT22;32921;53.256;8.198;2024-01-15T07:27:13;1.70;99.90
47162;DHT22;32921;53.256;8.198;2024-01-15T07:29:38;1.60;99.90
47162;DHT22;32921;53.256;8.198;2024-01-15T07:32:04;1.60;99.90
47162;DHT22;32921;53.256;8.198;2024-01-15T07:34:30;1.50;99.90
47162;DHT22;32921;53.256;8.198;2024-01-15T07:36:57;1.60;99.90
47162;DHT22;32921;53.256;8.198;2024-01-15T07:39:23;1.70;99.90
47162;DHT22;32921;53.256;8.198;2024-01-15T07:41:50;1.70;99.90
47162;DHT22;32921;53.256;8.198;2024-01-15T07:44:16;1.70;99.90
47162;DHT22;32921;53.256;8.198;2024-01-15T07:46:45;1.80;99.90
47162;DHT22;32921;53.256;8.198;2024-01-15T07:49:11;1.80;99.90
47162;DHT22;32921;53.256;8.198;2024-01-15T07:51:37;1.80;99.90
47162;DHT22;32921;53.256;8.198;2024-01-15T07:54:03;1.80;99.90
47162;DHT22;32921;53.256;8.198;2024-01-15T07:56:29;1.80;99.90
47162;DHT22;32921;53.256;8.198;2024-01-15T07:58:54;1.70;99.90
47162;DHT22;32921;53.256;8.198;2024-01-15T08:01:21;1.70;99.90
47162;DHT22;32921;53.256;8.198;2024-01-15T08:03:46;1.70;99.90
47162;DHT22;32921;53.256;8.198;2024-01-15T08:06:12;1.70;99.90
47162;DHT22;32921;53.256;8.198;2024-01-15T08:08:38;1.70;99.90
47162;DHT22;32921;53.256;8.198;2024-01-15T08:11:04;1.80;99.90
47162;DHT22;32921;53.256;8.198;2024-01-15T08:13:30;1.80;99.90
47162;DHT22;32921;53.256;8.198;2024-01-15T08:15:56;1.80;99.90
47162;DHT22;32921;53.256;8.198;2024-01-15T08:18:21;1.80;99.90
47162;DHT22;32921;53.256;8.198;2024-01-15T08:20:47;1.80;99.90
47162;DHT22;32921;53.256;8.198;2024-01-15T08:23:13;1.80;99.90
47162;DHT22;32921;53.256;8.198;2024-01-15T08:25:39;1.80;99.90
47162;DHT22;32921;53.256;8.198;2024-01-15T08:28:04;1.70;99.90
47162;DHT22;32921;53.256;8.198;2024-01-15T08:30:30;1.80;99.90
47162;DHT22;32921;53.256;8.198;2024-01-15T08:32:56;1.80;99.90
47162;DHT22;32921;53.256;8.198;2024-01-15T08:35:22;1.80;99.90
47162;DHT22;32921;53.256;8.198;2024-01-15T08:37:51;1.80;99.90
47162;DHT22;32921;53.256;8.198;2024-01-15T08:40:18;1.80;99.90
47162;DHT22;32921;53.256;8.198;2024-01-15T08:42:44;1.80;99.90
47162;DHT22;32921;53.256;8.198;2024-01-15T08:45:11;1.90;99.90
47162;DHT22;32921;53.256;8.198;2024-01-15T08:47:36;1.90;99.90
47162;DHT22;32921;53.256;8.198;2024-01-15T08:50:03;1.90;99.90
47162;DHT22;32921;53.256;8.198;2024-01-15T08:52:29;1.90;99.90
47162;DHT22;32921;53.256;8.198;2024-01-15T08:54:58;1.70;99.90
47162;DHT22;32921;53.256;8.198;2024-01-15T08:57:23;1.50;99.90
47162;DHT22;32921;53.256;8.198;2024-01-15T08:59:49;1.40;99.90
47162;DHT22;32921;53.256;8.198;2024-01-15T09:02:15;1.40;99.90
47162;DHT22;32921;53.256;8.198;2024-01-15T09:04:41;1.30;99.90
47162;DHT22;32921;53.256;8.198;2024-01-15T09:07:07;1.40;99.90
47162;DHT22;32921;53.256;8.198;2024-01-15T09:09:33;1.30;99.90
47162;DHT22;32921;53.256;8.198;2024-01-15T09:12:00;1.30;99.90
47162;DHT22;32921;53.256;8.198;2024-01-15T09:14:26;1.40;99.90
47162;DHT22;32921;53.256;8.198;2024-01-15T09:16:53;1.40;99.90
47162;DHT22;32921;53.256;8.198;2024-01-15T09:19:18;1.30;99.90
47162;DHT22;32921;53.256;8.198;2024-01-15T09:21:44;1.40;99.90
47162;DHT22;32921;53.256;8.198;2024-01-15T09:24:10;1.40;99.90
47162;DHT22;32921;53.256;8.198;2024-01-15T09:26:35;1.50;99.90
47162;DHT22;32921;53.256;8.198;2024-01-15T09:29:01;1.60;99.90
47162;DHT22;32921;53.256;8.198;2024-01-15T09:31:28;1.60;99.90
47162;DHT22;32921;53.256;8.198;2024-01-15T09:33:54;1.70;99.90
47162;DHT22;32921;53.256;8.198;2024-01-15T09:36:22;1.70;99.90
47162;DHT22;32921;53.256;8.198;2024-01-15T09:38:48;1.70;99.90
47162;DHT22;32921;53.256;8.198;2024-01-15T09:41:14;1.80;99.90
47162;DHT22;32921;53.256;8.198;2024-01-15T09:43:40;1.80;99.90
47162;DHT22;32921;53.256;8.198;2024-01-15T09:46:06;1.90;99.90
47162;DHT22;32921;53.256;8.198;2024-01-15T09:48:32;2.10;99.90
47162;DHT22;32921;53.256;8.198;2024-01-15T09:51:03;2.00;99.90
47162;DHT22;32921;53.256;8.198;2024-01-15T09:53:30;2.00;99.90
47162;DHT22;32921;53.256;8.198;2024-01-15T09:55:57;2.00;99.90
47162;DHT22;32921;53.256;8.198;2024-01-15T09:58:23;2.00;99.90
47162;DHT22;32921;53.256;8.198;2024-01-15T10:00:50;2.00;99.90
47162;DHT22;32921;53.256;8.198;2024-01-15T10:03:16;2.10;99.90
47162;DHT22;32921;53.256;8.198;2024-01-15T10:05:43;2.00;99.90
47162;DHT22;32921;53.256;8.198;2024-01-15T10:08:09;2.00;99.90
47162;DHT22;32921;53.256;8.198;2024-01-15T10:10:36;2.00;99.90
47162;DHT22;32921;53.256;8.198;2024-01-15T10:13:04;2.00;99.90
47162;DHT22;32921;53.256;8.198;2024-01-15T10:15:30;1.90;99.90
47162;DHT22;32921;53.256;8.198;2024-01-15T10:17:58;1.80;99.90
47162;DHT22;32921;53.256;8.198;2024-01-15T10:20:24;1.70;99.90
47162;DHT22;32921;53.256;8.198;2024-01-15T10:22:50;1.60;99.90
47162;DHT22;32921;53.256;8.198;2024-01-15T10:25:16;1.60;99.90
47162;DHT22;32921;53.256;8.198;2024-01-15T10:27:42;1.70;99.90
47162;DHT22;32921;53.256;8.198;2024-01-15T10:30:08;1.80;99.90
47162;DHT22;32921;53.256;8.198;2024-01-15T10:32:34;1.80;99.90
47162;DHT22;32921;53.256;8.198;2024-01-15T10:35:00;1.80;99.90
47162;DHT22;32921;53.256;8.198;2024-01-15T10:37:25;1.90;99.90
47162;DHT22;32921;53.256;8.198;2024-01-15T10:39:52;1.90;99.90
47162;DHT22;32921;53.256;8.198;2024-01-15T10:42:18;1.90;99.90
47162;DHT22;32921;53.256;8.198;2024-01-15T10:44:44;1.90;99.90
47162;DHT22;32921;53.256;8.198;2024-01-15T10:47:12;1.90;99.90
47162;DHT22;32921;53.256;8.198;2024-01-15T10:49:39;1.90;99.90
47162;DHT22;32921;53.256;8.198;2024-01-15T10:52:05;2.10;99.90
47162;DHT22;32921;53.256;8.198;2024-01-15T10:54:32;2.10;99.90
47162;DHT22;32921;53.256;8.198;2024-01-15T10:56:57;2.20;99.90
47162;DHT22;32921;53.256;8.198;2024-01-15T10:59:24;2.40;99.90
47162;DHT22;32921;53.256;8.198;2024-01-15T11:01:50;2.50;99.90
47162;DHT22;32921;53.256;8.198;2024-01-15T11:04:19;2.60;99.90
47162;DHT22;32921;53.256;8.198;2024-01-15T11:06:47;2.60;99.90
47162;DHT22;32921;53.256;8.198;2024-01-15T11:09:13;2.60;99.90
47162;DHT22;32921;53.256;8.198;2024-01-15T11:11:41;2.60;99.90
47162;DHT22;32921;53.256;8.198;2024-01-15T11:14:09;2.40;99.90
47162;DHT22;32921;53.256;8.198;2024-01-15T11:16:53;2.30;99.90
47162;DHT22;32921;53.256;8.198;2024-01-15T11:19:20;2.30;99.90
47162;DHT22;32921;53.256;8.198;2024-01-15T11:21:46;2.30;99.90
47162;DHT22;32921;53.256;8.198;2024-01-15T11:24:35;2.20;99.90
47162;DHT22;32921;53.256;8.198;2024-01-15T11:27:02;2.10;99.90
47162;DHT22;32921;53.256;8.198;2024-01-15T11:31:57;2.20;99.90
47162;DHT22;32921;53.256;8.198;2024-01-15T11:34:50;2.40;99.90
47162;DHT22;32921;53.256;8.198;2024-01-15T11:37:16;2.40;99.90
47162;DHT22;32921;53.256;8.198;2024-01-15T11:39:42;2.40;99.90
47162;DHT22;32921;53.256;8.198;2024-01-15T11:42:10;2.40;99.90
47162;DHT22;32921;53.256;8.198;2024-01-15T11:44:40;2.50;99.90
47162;DHT22;32921;53.256;8.198;2024-01-15T11:47:08;2.50;99.90
47162;DHT22;32921;53.256;8.198;2024-01-15T11:52:17;2.60;99.90
47162;DHT22;32921;53.256;8.198;2024-01-15T11:54:55;2.90;99.90
47162;DHT22;32921;53.256;8.198;2024-01-15T11:57:51;3.00;99.90
47162;DHT22;32921;53.256;8.198;2024-01-15T12:00:18;2.90;99.90
47162;DHT22;32921;53.256;8.198;2024-01-15T12:02:46;2.70;99.90
47162;DHT22;32921;53.256;8.198;2024-01-15T12:05:13;2.40;99.90
47162;DHT22;32921;53.256;8.198;2024-01-15T12:07:40;2.00;99.90
47162;DHT22;32921;53.256;8.198;2024-01-15T12:15:08;1.60;99.90
47162;DHT22;32921;53.256;8.198;2024-01-15T12:17:35;1.60;99.90
47162;DHT22;32921;53.256;8.198;2024-01-15T12:20:00;1.60;99.90
47162;DHT22;32921;53.256;8.198;2024-01-15T12:22:26;1.60;99.90
47162;DHT22;32921;53.256;8.198;2024-01-15T12:24:53;1.60;99.90
47162;DHT22;32921;53.256;8.198;2024-01-15T12:27:20;1.70;99.90
47162;DHT22;32921;53.256;8.198;2024-01-15T12:29:46;1.70;99.90
47162;DHT22;32921;53.256;8.198;2024-01-15T12:32:12;1.80;99.90
47162;DHT22;32921;53.256;8.198;2024-01-15T12:34:38;1.90;99.90
47162;DHT22;32921;53.256;8.198;2024-01-15T12:37:04;2.00;99.90
47162;DHT22;32921;53.256;8.198;2024-01-15T12:39:29;2.00;99.90
47162;DHT22;32921;53.256;8.198;2024-01-15T12:41:55;2.10;99.90
47162;DHT22;32921;53.256;8.198;2024-01-15T12:44:21;2.00;99.90
47162;DHT22;32921;53.256;8.198;2024-01-15T12:46:47;1.90;99.90
47162;DHT22;32921;53.256;8.198;2024-01-15T12:49:15;1.70;99.90
47162;DHT22;32921;53.256;8.198;2024-01-15T12:51:41;1.60;99.90
47162;DHT22;32921;53.256;8.198;2024-01-15T12:54:06;1.50;99.90
47162;DHT22;32921;53.256;8.198;2024-01-15T12:56:32;1.40;99.90
47162;DHT22;32921;53.256;8.198;2024-01-15T12:58:58;1.30;99.90
47162;DHT22;32921;53.256;8.198;2024-01-15T13:01:23;1.30;99.90
47162;DHT22;32921;53.256;8.198;2024-01-15T13:03:49;1.30;99.90
47162;DHT22;32921;53.256;8.198;2024-01-15T13:06:14;1.30;99.90
47162;DHT22;32921;53.256;8.198;2024-01-15T13:08:40;1.40;99.90
47162;DHT22;32921;53.256;8.198;2024-01-15T13:11:05;1.40;99.90
47162;DHT22;32921;53.256;8.198;2024-01-15T13:13:31;1.50;99.90
47162;DHT22;32921;53.256;8.198;2024-01-15T13:16:00;1.50;99.90
47162;DHT22;32921;53.256;8.198;2024-01-15T13:18:25;1.60;99.90
47162;DHT22;32921;53.256;8.198;2024-01-15T13:20:51;1.70;99.90
47162;DHT22;32921;53.256;8.198;2024-01-15T13:23:16;1.70;99.90
47162;DHT22;32921;53.256;8.198;2024-01-15T13:25:42;1.70;99.90
47162;DHT22;32921;53.256;8.198;2024-01-15T13:28:08;1.70;99.90
47162;DHT22;32921;53.256;8.198;2024-01-15T13:30:34;1.70;99.90
47162;DHT22;32921;53.256;8.198;2024-01-15T13:32:59;1.80;99.90
47162;DHT22;32921;53.256;8.198;2024-01-15T13:35:29;1.80;99.90
47162;DHT22;32921;53.256;8.198;2024-01-15T13:37:55;1.80;99.90
47162;DHT22;32921;53.256;8.198;2024-01-15T13:40:21;1.80;99.90
47162;DHT22;32921;53.256;8.198;2024-01-15T13:42:47;1.90;99.90
47162;DHT22;32921;53.256;8.198;2024-01-15T13:45:13;1.90;99.90
47162;DHT22;32921;53.256;8.198;2024-01-15T13:47:40;1.90;99.90
47162;DHT22;32921;53.256;8.198;2024-01-15T13:50:07;1.90;99.90
47162;DHT22;32921;53.256;8.198;2024-01-15T13:52:33;1.90;99.90
47162;DHT22;32921;53.256;8.198;2024-01-15T13:54:59;1.80;99.90
47162;DHT22;32921;53.256;8.198;2024-01-15T13:57:24;1.90;99.90
47162;DHT22;32921;53.256;8.198;2024-01-15T13:59:50;1.80;99.90
47162;DHT22;32921;53.256;8.198;2024-01-15T14:02:15;1.90;99.90
47162;DHT22;32921;53.256;8.198;2024-01-15T14:04:41;1.90;99.90
47162;DHT22;32921;53.256;8.198;2024-01-15T14:07:07;1.90;99.90
47162;DHT22;32921;53.256;8.198;2024-01-15T14:09:32;1.90;99.90
47162;DHT22;32921;53.256;8.198;2024-01-15T14:11:58;1.90;99.90
47162;DHT22;32921;53.256;8.198;2024-01-15T14:14:24;1.90;99.90
47162;DHT22;32921;53.256;8.198;2024-01-15T14:16:50;1.90;99.90
47162;DHT22;32921;53.256;8.198;2024-01-15T14:19:15;1.90;99.90
47162;DHT22;32921;53.256;8.198;2024-01-15T14:21:41;1.90;99.90
47162;DHT22;32921;53.256;8.198;2024-01-15T14:24:07;1.90;99.90
47162;DHT22;32921;53.256;8.198;2024-01-15T14:26:32;2.00;99.90
47162;DHT22;32921;53.256;8.198;2024-01-15T14:28:58;2.00;99.90
47162;DHT22;32921;53.256;8.198;2024-01-15T14:31:24;1.90;99.90
47162;DHT22;32921;53.256;8.198;2024-01-15T14:33:52;1.90;99.90
47162;DHT22;32921;53.256;8.198;2024-01-15T14:36:17;1.80;99.90
47162;DHT22;32921;53.256;8.198;2024-01-15T14:38:43;1.90;99.90
47162;DHT22;32921;53.256;8.198;2024-01-15T14:41:09;1.80;99.90
47162;DHT22;32921;53.256;8.198;2024-01-15T14:43:34;1.80;99.90
47162;DHT22;32921;53.256;8.198;2024-01-15T14:46:00;1.80;99.90
47162;DHT22;32921;53.256;8.198;2024-01-15T14:48:25;1.80;99.90
47162;DHT22;32921;53.256;8.198;2024-01-15T14:50:51;1.80;99.90
47162;DHT22;32921;53.256;8.198;2024-01-15T14:53:17;1.70;99.90
47162;DHT22;32921;53.256;8.198;2024-01-15T14:55:42;1.70;99.90
47162;DHT22;32921;53.256;8.198;2024-01-15T14:58:08;1.60;99.90
47162;DHT22;32921;53.256;8.198;2024-01-15T15:00:34;1.70;99.90
47162;DHT22;32921;53.256;8.198;2024-01-15T15:02:59;1.70;99.90
47162;DHT22;32921;53.256;8.198;2024-01-15T15:05:25;1.60;99.90
47162;DHT22;32921;53.256;8.198;2024-01-15T15:07:51;1.60;99.90
47162;DHT22;32921;53.256;8.198;2024-01-15T15:10:17;1.60;99.90
47162;DHT22;32921;53.256;8.198;2024-01-15T15:12:42;1.50;99.90
47162;DHT22;32921;53.256;8.198;2024-01-15T15:15:09;1.50;99.90
47162;DHT22;32921;53.256;8.198;2024-01-15T15:17:39;1.40;99.90
47162;DHT22;32921;53.256;8.198;2024-01-15T15:20:08;1.40;99.90
47162;DHT22;32921;53.256;8.198;2024-01-15T15:22:34;1.40;99.90
47162;DHT22;32921;53.256;8.198;2024-01-15T15:24:59;1.40;99.90
47162;DHT22;32921;53.256;8.198;2024-01-15T15:27:25;1.30;99.90
47162;DHT22;32921;53.256;8.198;2024-01-15T15:29:53;1.30;99.90
47162;DHT22;32921;53.256;8.198;2024-01-15T15:32:18;1.40;99.90
47162;DHT22;32921;53.256;8.198;2024-01-15T15:34:44;1.40;99.90
47162;DHT22;32921;53.256;8.198;2024-01-15T15:37:09;1.40;99.90
47162;DHT22;32921;53.256;8.198;2024-01-15T15:39:35;1.50;99.90
47162;DHT22;32921;53.256;8.198;2024-01-15T15:42:01;1.50;99.90
47162;DHT22;32921;53.256;8.198;2024-01-15T15:44:26;1.50;99.90
47162;DHT22;32921;53.256;8.198;2024-01-15T15:46:52;1.60;99.90
47162;DHT22;32921;53.256;8.198;2024-01-15T15:49:17;1.60;99.90